sensor_id;sensor_type;location;lat;lon;timestamp;pressure;altitude;pressure_sealevel;temperature;humidity
77739;BME280;66904;59.926;30.404;2023-02-01T00:04:28;99233.63;;;28.53;23.10
77739;BME280;66904;59.926;30.404;2023-02-01T00:09:29;99251.31;;;28.56;23.03
77739;BME280;66904;59.926;30.404;2023-02-01T00:14:29;99247.47;;;28.52;22.65
77739;BME280;66904;59.926;30.404;2023-02-01T00:19:30;99244.50;;;28.53;22.93
77739;BME280;66904;59.926;30.404;2023-02-01T00:24:30;99248.56;;;28.51;23.24
77739;BME280;66904;59.926;30.404;2023-02-01T00:29:31;99244.19;;;28.45;22.99
77739;BME280;66904;59.926;30.404;2023-02-01T00:34:32;99256.19;;;28.49;22.86
77739;BME280;66904;59.926;30.404;2023-02-01T00:39:32;99267.31;;;28.47;23.17
77739;BME280;66904;59.926;30.404;2023-02-01T00:44:32;99270.31;;;28.46;22.87
77739;BME280;66904;59.926;30.404;2023-02-01T00:55:21;99294.25;;;28.44;22.79
77739;BME280;66904;59.926;30.404;2023-02-01T01:00:22;99299.69;;;28.44;22.61
77739;BME280;66904;59.926;30.404;2023-02-01T01:05:23;99291.78;;;28.42;22.82
77739;BME280;66904;59.926;30.404;2023-02-01T01:10:24;99290.97;;;28.37;22.52
77739;BME280;66904;59.926;30.404;2023-02-01T01:15:24;99306.22;;;28.43;23.06
77739;BME280;66904;59.926;30.404;2023-02-01T01:20:25;99308.94;;;28.43;22.56
77739;BME280;66904;59.926;30.404;2023-02-01T01:25:46;99315.75;;;28.40;22.77
77739;BME280;66904;59.926;30.404;2023-02-01T01:31:13;99314.94;;;28.45;22.42
77739;BME280;66904;59.926;30.404;2023-02-01T01:36:14;99305.94;;;28.44;22.40
77739;BME280;66904;59.926;30.404;2023-02-01T01:41:17;99316.81;;;28.44;22.84
77739;BME280;66904;59.926;30.404;2023-02-01T01:51:28;99316.28;;;28.47;22.70
77739;BME280;66904;59.926;30.404;2023-02-01T01:56:30;99332.63;;;28.47;22.56
77739;BME280;66904;59.926;30.404;2023-02-01T02:01:32;99329.09;;;28.47;22.09
77739;BME280;66904;59.926;30.404;2023-02-01T02:06:47;99338.09;;;28.52;22.34
77739;BME280;66904;59.926;30.404;2023-02-01T02:11:50;99331.00;;;28.46;22.42
77739;BME280;66904;59.926;30.404;2023-02-01T02:38:34;99352.50;;;28.48;22.26
77739;BME280;66904;59.926;30.404;2023-02-01T02:43:58;99356.06;;;28.53;22.20
77739;BME280;66904;59.926;30.404;2023-02-01T02:49:40;99358.75;;;28.48;22.23
77739;BME280;66904;59.926;30.404;2023-02-01T02:55:00;99369.47;;;28.65;22.56
77739;BME280;66904;59.926;30.404;2023-02-01T03:00:54;99363.72;;;28.56;22.15
77739;BME280;66904;59.926;30.404;2023-02-01T03:06:17;99369.91;;;28.47;22.07
77739;BME280;66904;59.926;30.404;2023-02-01T03:11:19;99369.91;;;28.47;22.37
77739;BME280;66904;59.926;30.404;2023-02-01T03:16:24;99371.81;;;28.46;22.46
77739;BME280;66904;59.926;30.404;2023-02-01T03:26:48;99385.97;;;28.48;22.19
77739;BME280;66904;59.926;30.404;2023-02-01T03:31:52;99380.81;;;28.47;22.01
77739;BME280;66904;59.926;30.404;2023-02-01T03:37:22;99381.13;;;28.55;22.52
77739;BME280;66904;59.926;30.404;2023-02-01T03:42:46;99379.47;;;28.54;22.16
77739;BME280;66904;59.926;30.404;2023-02-01T03:48:20;99389.03;;;28.57;22.89
77739;BME280;66904;59.926;30.404;2023-02-01T03:53:26;99387.63;;;28.49;22.95
77739;BME280;66904;59.926;30.404;2023-02-01T03:58:27;99398.50;;;28.49;23.04
77739;BME280;66904;59.926;30.404;2023-02-01T04:03:28;99400.94;;;28.46;22.66
77739;BME280;66904;59.926;30.404;2023-02-01T04:08:29;99414.31;;;28.52;23.29
77739;BME280;66904;59.926;30.404;2023-02-01T04:13:29;99412.13;;;28.54;23.28
77739;BME280;66904;59.926;30.404;2023-02-01T04:18:33;99415.66;;;28.55;23.62
77739;BME280;66904;59.926;30.404;2023-02-01T04:23:33;99427.13;;;28.57;23.37
77739;BME280;66904;59.926;30.404;2023-02-01T04:28:34;99440.22;;;28.60;23.70
77739;BME280;66904;59.926;30.404;2023-02-01T04:33:34;99445.13;;;28.63;23.38
77739;BME280;66904;59.926;30.404;2023-02-01T04:38:35;99449.56;;;28.69;23.85
77739;BME280;66904;59.926;30.404;2023-02-01T04:43:35;99451.75;;;28.72;23.79
77739;BME280;66904;59.926;30.404;2023-02-01T04:48:36;99450.91;;;28.71;23.25
77739;BME280;66904;59.926;30.404;2023-02-01T04:53:36;99465.59;;;28.70;23.61
77739;BME280;66904;59.926;30.404;2023-02-01T04:58:37;99472.69;;;28.66;23.67
77739;BME280;66904;59.926;30.404;2023-02-01T05:03:37;99473.16;;;28.63;23.33
77739;BME280;66904;59.926;30.404;2023-02-01T05:08:38;99475.03;;;28.58;23.23
77739;BME280;66904;59.926;30.404;2023-02-01T05:13:38;99478.78;;;28.52;23.06
77739;BME280;66904;59.926;30.404;2023-02-01T05:18:48;99481.47;;;28.47;23.35
77739;BME280;66904;59.926;30.404;2023-02-01T05:23:49;99479.28;;;28.44;23.17
77739;BME280;66904;59.926;30.404;2023-02-01T05:29:09;99485.50;;;28.39;22.91
77739;BME280;66904;59.926;30.404;2023-02-01T05:34:09;99487.09;;;28.35;23.00
77739;BME280;66904;59.926;30.404;2023-02-01T05:39:10;99487.59;;;28.32;22.70
77739;BME280;66904;59.926;30.404;2023-02-01T05:44:11;99483.50;;;28.30;22.60
77739;BME280;66904;59.926;30.404;2023-02-01T05:49:11;99492.75;;;28.29;22.83
77739;BME280;66904;59.926;30.404;2023-02-01T05:54:12;99493.81;;;28.28;22.65
77739;BME280;66904;59.926;30.404;2023-02-01T05:59:13;99503.84;;;28.22;22.35
77739;BME280;66904;59.926;30.404;2023-02-01T06:04:13;99509.59;;;28.26;22.12
77739;BME280;66904;59.926;30.404;2023-02-01T06:09:14;99508.50;;;28.27;22.50
77739;BME280;66904;59.926;30.404;2023-02-01T06:14:14;99512.63;;;28.29;22.22
77739;BME280;66904;59.926;30.404;2023-02-01T06:19:15;99511.28;;;28.32;22.37
77739;BME280;66904;59.926;30.404;2023-02-01T06:24:15;99523.81;;;28.33;22.62
77739;BME280;66904;59.926;30.404;2023-02-01T06:29:16;99520.00;;;28.34;22.26
77739;BME280;66904;59.926;30.404;2023-02-01T06:34:16;99520.81;;;28.34;21.99
77739;BME280;66904;59.926;30.404;2023-02-01T06:39:17;99527.34;;;28.33;21.89
77739;BME280;66904;59.926;30.404;2023-02-01T06:44:17;99535.81;;;28.37;22.21
77739;BME280;66904;59.926;30.404;2023-02-01T06:49:18;99540.97;;;28.38;22.25
77739;BME280;66904;59.926;30.404;2023-02-01T06:54:20;99541.81;;;28.39;22.13
77739;BME280;66904;59.926;30.404;2023-02-01T06:59:20;99539.91;;;28.39;21.63
77739;BME280;66904;59.926;30.404;2023-02-01T07:04:20;99551.09;;;28.43;22.11
77739;BME280;66904;59.926;30.404;2023-02-01T07:09:21;99558.19;;;28.44;21.76
77739;BME280;66904;59.926;30.404;2023-02-01T07:14:22;99563.63;;;28.44;21.93
77739;BME280;66904;59.926;30.404;2023-02-01T07:19:22;99580.25;;;28.47;22.16
77739;BME280;66904;59.926;30.404;2023-02-01T07:24:22;99580.81;;;28.49;21.77
77739;BME280;66904;59.926;30.404;2023-02-01T07:29:23;99583.34;;;28.56;21.80
77739;BME280;66904;59.926;30.404;2023-02-01T07:34:23;99584.97;;;28.57;21.38
77739;BME280;66904;59.926;30.404;2023-02-01T07:39:24;99588.50;;;28.57;21.36
77739;BME280;66904;59.926;30.404;2023-02-01T07:44:24;99599.66;;;28.56;21.34
77739;BME280;66904;59.926;30.404;2023-02-01T07:49:25;99607.25;;;28.54;21.61
77739;BME280;66904;59.926;30.404;2023-02-01T07:54:25;99602.06;;;28.52;22.02
77739;BME280;66904;59.926;30.404;2023-02-01T07:59:27;99609.69;;;28.50;22.26
77739;BME280;66904;59.926;30.404;2023-02-01T08:04:28;99612.91;;;28.47;22.26
77739;BME280;66904;59.926;30.404;2023-02-01T08:09:29;99605.88;;;28.51;22.13
77739;BME280;66904;59.926;30.404;2023-02-01T08:14:31;99617.88;;;28.55;22.31
77739;BME280;66904;59.926;30.404;2023-02-01T08:19:31;99607.81;;;28.56;22.09
77739;BME280;66904;59.926;30.404;2023-02-01T08:24:33;99623.88;;;28.57;22.49
77739;BME280;66904;59.926;30.404;2023-02-01T08:29:34;99625.53;;;28.58;22.45
77739;BME280;66904;59.926;30.404;2023-02-01T08:34:34;99621.75;;;28.59;21.93
77739;BME280;66904;59.926;30.404;2023-02-01T08:39:35;99626.59;;;28.57;22.22
77739;BME280;66904;59.926;30.404;2023-02-01T08:44:36;99624.19;;;28.61;22.07
77739;BME280;66904;59.926;30.404;2023-02-01T08:49:37;99634.00;;;28.62;22.52
77739;BME280;66904;59.926;30.404;2023-02-01T08:54:37;99625.31;;;28.65;21.96
77739;BME280;66904;59.926;30.404;2023-02-01T08:59:40;99626.72;;;28.67;22.51
77739;BME280;66904;59.926;30.404;2023-02-01T09:04:41;99634.91;;;28.67;21.77
77739;BME280;66904;59.926;30.404;2023-02-01T09:10:06;99637.63;;;28.67;22.20
77739;BME280;66904;59.926;30.404;2023-02-01T09:15:07;99632.44;;;28.66;22.03
77739;BME280;66904;59.926;30.404;2023-02-01T09:20:09;99639.28;;;28.68;22.07
77739;BME280;66904;59.926;30.404;2023-02-01T09:25:10;99637.63;;;28.67;21.99
77739;BME280;66904;59.926;30.404;2023-02-01T09:30:11;99640.09;;;28.69;22.01
77739;BME280;66904;59.926;30.404;2023-02-01T09:35:12;99646.38;;;28.69;22.17
77739;BME280;66904;59.926;30.404;2023-02-01T09:40:15;99647.19;;;28.70;21.51
77739;BME280;66904;59.926;30.404;2023-02-01T09:50:25;99644.47;;;28.70;21.22
77739;BME280;66904;59.926;30.404;2023-02-01T09:55:41;99639.28;;;28.68;21.86
77739;BME280;66904;59.926;30.404;2023-02-01T10:01:03;99646.09;;;28.71;21.16
77739;BME280;66904;59.926;30.404;2023-02-01T10:22:43;99656.47;;;28.74;22.41
77739;BME280;66904;59.926;30.404;2023-02-01T10:27:44;99648.00;;;28.70;21.95
77739;BME280;66904;59.926;30.404;2023-02-01T10:32:48;99650.47;;;28.72;22.86
77739;BME280;66904;59.926;30.404;2023-02-01T10:38:00;99643.69;;;28.74;22.60
77739;BME280;66904;59.926;30.404;2023-02-01T10:43:04;99646.97;;;28.77;22.61
77739;BME280;66904;59.926;30.404;2023-02-01T10:48:05;99655.41;;;28.75;22.38
77739;BME280;66904;59.926;30.404;2023-02-01T10:53:16;99660.31;;;28.78;22.53
77739;BME280;66904;59.926;30.404;2023-02-01T10:58:31;99655.69;;;28.79;22.76
77739;BME280;66904;59.926;30.404;2023-02-01T11:14:26;99649.44;;;28.78;22.01
77739;BME280;66904;59.926;30.404;2023-02-01T11:19:27;99651.84;;;28.74;22.52
77739;BME280;66904;59.926;30.404;2023-02-01T11:24:32;99658.13;;;28.75;22.58
77739;BME280;66904;59.926;30.404;2023-02-01T11:29:38;99645.84;;;28.72;22.46
77739;BME280;66904;59.926;30.404;2023-02-01T11:34:48;99649.94;;;28.75;23.20
77739;BME280;66904;59.926;30.404;2023-02-01T11:40:00;99652.13;;;28.73;24.03
77739;BME280;66904;59.926;30.404;2023-02-01T11:45:19;99657.06;;;28.76;23.98
77739;BME280;66904;59.926;30.404;2023-02-01T11:50:56;99656.22;;;28.76;24.13
77739;BME280;66904;59.926;30.404;2023-02-01T11:56:08;99658.81;;;28.65;24.35
77739;BME280;66904;59.926;30.404;2023-02-01T12:06:54;99660.72;;;28.65;23.99
77739;BME280;66904;59.926;30.404;2023-02-01T12:17:47;99658.19;;;28.58;23.66
77739;BME280;66904;59.926;30.404;2023-02-01T12:59:34;99663.84;;;28.52;22.08
77739;BME280;66904;59.926;30.404;2023-02-01T13:04:59;99662.47;;;28.49;21.93
77739;BME280;66904;59.926;30.404;2023-02-01T13:10:13;99666.53;;;28.47;21.77
77739;BME280;66904;59.926;30.404;2023-02-01T13:15:28;99672.53;;;28.49;21.38
77739;BME280;66904;59.926;30.404;2023-02-01T13:20:31;99665.94;;;28.45;21.90
77739;BME280;66904;59.926;30.404;2023-02-01T13:25:47;99661.63;;;28.49;21.97
77739;BME280;66904;59.926;30.404;2023-02-01T13:42:01;99676.19;;;28.59;22.18
77739;BME280;66904;59.926;30.404;2023-02-01T13:47:09;99663.63;;;28.58;21.99
77739;BME280;66904;59.926;30.404;2023-02-01T13:52:39;99668.16;;;28.69;22.13
77739;BME280;66904;59.926;30.404;2023-02-01T13:57:42;99677.31;;;28.63;21.84
77739;BME280;66904;59.926;30.404;2023-02-01T14:02:51;99675.16;;;28.65;21.63
77739;BME280;66904;59.926;30.404;2023-02-01T14:13:13;99690.16;;;28.68;21.97
77739;BME280;66904;59.926;30.404;2023-02-01T14:29:03;99697.44;;;28.62;22.18
77739;BME280;66904;59.926;30.404;2023-02-01T14:34:16;99702.88;;;28.62;21.67
77739;BME280;66904;59.926;30.404;2023-02-01T14:44:32;99709.41;;;28.61;22.16
77739;BME280;66904;59.926;30.404;2023-02-01T14:49:50;99719.75;;;28.64;22.02
77739;BME280;66904;59.926;30.404;2023-02-01T14:54:59;99709.53;;;28.71;22.34
77739;BME280;66904;59.926;30.404;2023-02-01T15:00:12;99725.66;;;28.78;22.40
77739;BME280;66904;59.926;30.404;2023-02-01T15:05:31;99724.69;;;28.89;22.75
77739;BME280;66904;59.926;30.404;2023-02-01T15:10:50;99716.84;;;28.93;22.68
77739;BME280;66904;59.926;30.404;2023-02-01T15:16:26;99719.59;;;28.98;23.06
77739;BME280;66904;59.926;30.404;2023-02-01T15:21:47;99717.50;;;29.05;23.16
77739;BME280;66904;59.926;30.404;2023-02-01T15:27:05;99731.41;;;29.08;23.05
77739;BME280;66904;59.926;30.404;2023-02-01T15:32:30;99733.69;;;29.16;22.88
77739;BME280;66904;59.926;30.404;2023-02-01T15:37:33;99729.75;;;29.07;22.53
77739;BME280;66904;59.926;30.404;2023-02-01T15:42:34;99739.03;;;29.06;22.47
77739;BME280;66904;59.926;30.404;2023-02-01T15:47:34;99722.38;;;29.03;22.13
77739;BME280;66904;59.926;30.404;2023-02-01T15:52:40;99726.69;;;28.99;22.07
77739;BME280;66904;59.926;30.404;2023-02-01T15:57:41;99735.09;;;28.97;21.99
77739;BME280;66904;59.926;30.404;2023-02-01T16:02:51;99742.22;;;28.98;21.88
77739;BME280;66904;59.926;30.404;2023-02-01T16:08:12;99746.84;;;28.98;21.99
77739;BME280;66904;59.926;30.404;2023-02-01T16:13:15;99743.25;;;28.92;22.06
77739;BME280;66904;59.926;30.404;2023-02-01T16:18:16;99750.06;;;28.95;21.57
77739;BME280;66904;59.926;30.404;2023-02-01T16:23:17;99746.53;;;28.94;21.79
77739;BME280;66904;59.926;30.404;2023-02-01T16:28:17;99753.88;;;28.94;22.00
77739;BME280;66904;59.926;30.404;2023-02-01T16:33:19;99759.59;;;28.92;21.69
77739;BME280;66904;59.926;30.404;2023-02-01T16:38:22;99751.63;;;28.86;21.80
77739;BME280;66904;59.926;30.404;2023-02-01T16:43:24;99761.44;;;28.87;21.90
77739;BME280;66904;59.926;30.404;2023-02-01T16:48:28;99761.13;;;28.83;21.41
77739;BME280;66904;59.926;30.404;2023-02-01T16:53:31;99755.63;;;28.78;22.07
77739;BME280;66904;59.926;30.404;2023-02-01T16:58:31;99760.53;;;28.81;22.25
77739;BME280;66904;59.926;30.404;2023-02-01T17:03:32;99759.72;;;28.81;22.69
77739;BME280;66904;59.926;30.404;2023-02-01T17:08:38;99763.84;;;28.83;23.20
77739;BME280;66904;59.926;30.404;2023-02-01T17:13:40;99771.72;;;28.80;23.38
77739;BME280;66904;59.926;30.404;2023-02-01T17:18:57;99771.19;;;28.83;25.32
77739;BME280;66904;59.926;30.404;2023-02-01T17:23:58;99770.28;;;28.77;25.06
77739;BME280;66904;59.926;30.404;2023-02-01T17:29:00;99771.41;;;28.76;24.93
77739;BME280;66904;59.926;30.404;2023-02-01T17:34:00;99772.22;;;28.77;25.16
77739;BME280;66904;59.926;30.404;2023-02-01T17:39:01;99775.75;;;28.77;24.98
77739;BME280;66904;59.926;30.404;2023-02-01T17:44:03;99762.13;;;28.77;24.26
77739;BME280;66904;59.926;30.404;2023-02-01T17:49:03;99768.16;;;28.79;24.65
77739;BME280;66904;59.926;30.404;2023-02-01T17:54:04;99769.00;;;28.80;24.11
77739;BME280;66904;59.926;30.404;2023-02-01T17:59:05;99773.59;;;28.79;23.97
77739;BME280;66904;59.926;30.404;2023-02-01T18:04:10;99777.47;;;28.83;23.76
77739;BME280;66904;59.926;30.404;2023-02-01T18:09:11;99778.25;;;28.84;23.79
77739;BME280;66904;59.926;30.404;2023-02-01T18:14:11;99776.66;;;28.83;23.86
77739;BME280;66904;59.926;30.404;2023-02-01T18:19:12;99777.72;;;28.82;23.20
77739;BME280;66904;59.926;30.404;2023-02-01T18:24:15;99782.09;;;28.83;23.32
77739;BME280;66904;59.926;30.404;2023-02-01T18:29:16;99777.97;;;28.80;23.19
77739;BME280;66904;59.926;30.404;2023-02-01T18:34:17;99773.81;;;28.72;23.03
77739;BME280;66904;59.926;30.404;2023-02-01T18:39:21;99787.47;;;28.78;22.78
77739;BME280;66904;59.926;30.404;2023-02-01T18:44:22;99793.72;;;28.78;22.91
77739;BME280;66904;59.926;30.404;2023-02-01T18:49:23;99778.22;;;28.79;22.70
77739;BME280;66904;59.926;30.404;2023-02-01T18:54:23;99787.22;;;28.79;22.81
77739;BME280;66904;59.926;30.404;2023-02-01T18:59:24;99788.88;;;28.80;22.50
77739;BME280;66904;59.926;30.404;2023-02-01T19:04:25;99790.25;;;28.83;22.92
77739;BME280;66904;59.926;30.404;2023-02-01T19:09:25;99785.38;;;28.85;23.12
77739;BME280;66904;59.926;30.404;2023-02-01T19:14:27;99775.84;;;28.87;22.77
77739;BME280;66904;59.926;30.404;2023-02-01T19:19:28;99785.69;;;28.88;22.76
77739;BME280;66904;59.926;30.404;2023-02-01T19:24:29;99784.03;;;28.87;22.91
77739;BME280;66904;59.926;30.404;2023-02-01T19:29:30;99793.59;;;28.90;23.02
77739;BME280;66904;59.926;30.404;2023-02-01T19:34:31;99780.78;;;28.90;23.06
77739;BME280;66904;59.926;30.404;2023-02-01T19:39:32;99777.28;;;28.90;22.84
77739;BME280;66904;59.926;30.404;2023-02-01T19:44:36;99776.88;;;28.81;22.55
77739;BME280;66904;59.926;30.404;2023-02-01T19:49:37;99778.78;;;28.81;22.42
77739;BME280;66904;59.926;30.404;2023-02-01T19:54:40;99787.97;;;28.74;22.62
77739;BME280;66904;59.926;30.404;2023-02-01T19:59:41;99796.44;;;28.78;22.85
77739;BME280;66904;59.926;30.404;2023-02-01T20:04:42;99795.91;;;28.76;22.80
77739;BME280;66904;59.926;30.404;2023-02-01T20:09:42;99802.22;;;28.82;22.69
77739;BME280;66904;59.926;30.404;2023-02-01T20:14:43;99803.28;;;28.81;22.64
77739;BME280;66904;59.926;30.404;2023-02-01T20:19:43;99796.25;;;28.85;22.32
77739;BME280;66904;59.926;30.404;2023-02-01T20:24:44;99805.81;;;28.87;22.63
77739;BME280;66904;59.926;30.404;2023-02-01T20:29:45;99804.75;;;28.88;22.89
77739;BME280;66904;59.926;30.404;2023-02-01T20:34:45;99803.91;;;28.88;22.21
77739;BME280;66904;59.926;30.404;2023-02-01T20:39:50;99796.84;;;28.87;22.65
77739;BME280;66904;59.926;30.404;2023-02-01T20:44:50;99806.94;;;28.91;22.68
77739;BME280;66904;59.926;30.404;2023-02-01T20:49:51;99797.09;;;28.85;22.61
77739;BME280;66904;59.926;30.404;2023-02-01T20:54:51;99804.44;;;28.85;23.07
77739;BME280;66904;59.926;30.404;2023-02-01T20:59:52;99806.31;;;28.84;22.98
77739;BME280;66904;59.926;30.404;2023-02-01T21:04:53;99818.88;;;28.85;23.16
77739;BME280;66904;59.926;30.404;2023-02-01T21:09:53;99811.84;;;28.89;23.17
77739;BME280;66904;59.926;30.404;2023-02-01T21:14:55;99815.72;;;28.93;23.31
77739;BME280;66904;59.926;30.404;2023-02-01T21:25:40;99822.56;;;29.01;23.57
77739;BME280;66904;59.926;30.404;2023-02-01T21:30:40;99826.44;;;29.05;23.69
77739;BME280;66904;59.926;30.404;2023-02-01T21:41:23;99829.44;;;29.03;22.73
77739;BME280;66904;59.926;30.404;2023-02-01T21:46:51;99836.47;;;28.99;22.71
77739;BME280;66904;59.926;30.404;2023-02-01T21:52:11;99836.91;;;28.91;22.85
77739;BME280;66904;59.926;30.404;2023-02-01T21:57:11;99837.94;;;28.85;22.97
77739;BME280;66904;59.926;30.404;2023-02-01T22:02:18;99840.88;;;28.84;22.80
77739;BME280;66904;59.926;30.404;2023-02-01T22:07:38;99826.91;;;28.75;22.73
77739;BME280;66904;59.926;30.404;2023-02-01T22:12:38;99843.25;;;28.75;22.77
77739;BME280;66904;59.926;30.404;2023-02-01T22:17:39;99844.59;;;28.72;22.75
77739;BME280;66904;59.926;30.404;2023-02-01T22:22:55;99853.59;;;28.73;23.03
77739;BME280;66904;59.926;30.404;2023-02-01T22:27:59;99849.13;;;28.67;22.22
77739;BME280;66904;59.926;30.404;2023-02-01T22:33:11;99850.44;;;28.64;22.97
77739;BME280;66904;59.926;30.404;2023-02-01T22:38:12;99855.03;;;28.64;22.76
77739;BME280;66904;59.926;30.404;2023-02-01T22:43:12;99847.16;;;28.62;23.06
77739;BME280;66904;59.926;30.404;2023-02-01T22:48:35;99847.00;;;28.69;22.77
77739;BME280;66904;59.926;30.404;2023-02-01T22:59:30;99844.84;;;28.54;22.62
77739;BME280;66904;59.926;30.404;2023-02-01T23:04:39;99842.72;;;28.56;22.81
77739;BME280;66904;59.926;30.404;2023-02-01T23:10:08;99854.16;;;28.58;22.90
77739;BME280;66904;59.926;30.404;2023-02-01T23:15:27;99848.66;;;28.53;22.77
77739;BME280;66904;59.926;30.404;2023-02-01T23:20:27;99857.06;;;28.52;22.81
77739;BME280;66904;59.926;30.404;2023-02-01T23:25:28;99857.06;;;28.52;22.68
77739;BME280;66904;59.926;30.404;2023-02-01T23:30:43;99857.16;;;28.57;22.80
77739;BME280;66904;59.926;30.404;2023-02-01T23:36:10;99858.47;;;28.54;22.33
77739;BME280;66904;59.926;30.404;2023-02-01T23:41:12;99864.69;;;28.50;22.42
77739;BME280;66904;59.926;30.404;2023-02-01T23:46:50;99857.94;;;28.57;22.45
77739;BME280;66904;59.926;30.404;2023-02-01T23:51:50;99858.41;;;28.49;22.69
77739;BME280;66904;59.926;30.404;2023-02-01T23:56:52;99859.22;;;28.50;22.42
